sensor_id;sensor_type;location;lat;lon;timestamp;P1;durP1;ratioP1;P2;durP2;ratioP2
76788;SDS011;65740;52.464;13.446;2023-05-07T00:01:48;3.97;;;3.77;;
76788;SDS011;65740;52.464;13.446;2023-05-07T00:04:14;4.00;;;3.70;;
76788;SDS011;65740;52.464;13.446;2023-05-07T00:06:39;3.57;;;3.37;;
76788;SDS011;65740;52.464;13.446;2023-05-07T00:09:05;3.37;;;3.17;;
76788;SDS011;65740;52.464;13.446;2023-05-07T00:11:31;3.73;;;3.47;;
76788;SDS011;65740;52.464;13.446;2023-05-07T00:13:58;4.00;;;3.80;;
76788;SDS011;65740;52.464;13.446;2023-05-07T00:16:23;3.50;;;3.30;;
76788;SDS011;65740;52.464;13.446;2023-05-07T00:18:49;3.73;;;3.53;;
76788;SDS011;65740;52.464;13.446;2023-05-07T00:21:15;3.50;;;3.30;;
76788;SDS011;65740;52.464;13.446;2023-05-07T00:23:41;4.00;;;3.30;;
76788;SDS011;65740;52.464;13.446;2023-05-07T00:26:06;3.67;;;3.47;;
76788;SDS011;65740;52.464;13.446;2023-05-07T00:28:32;4.00;;;3.70;;
76788;SDS011;65740;52.464;13.446;2023-05-07T00:30:58;3.97;;;3.67;;
76788;SDS011;65740;52.464;13.446;2023-05-07T00:33:23;4.50;;;4.20;;
76788;SDS011;65740;52.464;13.446;2023-05-07T00:35:51;3.97;;;3.73;;
76788;SDS011;65740;52.464;13.446;2023-05-07T00:38:17;3.83;;;3.63;;
76788;SDS011;65740;52.464;13.446;2023-05-07T00:40:43;4.20;;;3.90;;
76788;SDS011;65740;52.464;13.446;2023-05-07T00:43:08;4.00;;;3.80;;
76788;SDS011;65740;52.464;13.446;2023-05-07T00:45:34;3.67;;;3.47;;
76788;SDS011;65740;52.464;13.446;2023-05-07T00:48:00;4.20;;;4.00;;
76788;SDS011;65740;52.464;13.446;2023-05-07T00:50:27;4.07;;;3.73;;
76788;SDS011;65740;52.464;13.446;2023-05-07T00:52:54;3.63;;;3.43;;
76788;SDS011;65740;52.464;13.446;2023-05-07T00:55:21;3.97;;;3.67;;
76788;SDS011;65740;52.464;13.446;2023-05-07T00:57:47;3.50;;;3.30;;
76788;SDS011;65740;52.464;13.446;2023-05-07T01:00:15;3.67;;;3.47;;
76788;SDS011;65740;52.464;13.446;2023-05-07T01:02:41;3.60;;;3.40;;
76788;SDS011;65740;52.464;13.446;2023-05-07T01:05:07;4.00;;;3.70;;
76788;SDS011;65740;52.464;13.446;2023-05-07T01:07:37;3.70;;;3.40;;
76788;SDS011;65740;52.464;13.446;2023-05-07T01:10:05;4.03;;;3.63;;
76788;SDS011;65740;52.464;13.446;2023-05-07T01:12:32;4.00;;;3.80;;
76788;SDS011;65740;52.464;13.446;2023-05-07T01:15:00;3.57;;;3.37;;
76788;SDS011;65740;52.464;13.446;2023-05-07T01:17:26;3.87;;;3.57;;
76788;SDS011;65740;52.464;13.446;2023-05-07T01:19:52;4.00;;;3.80;;
76788;SDS011;65740;52.464;13.446;2023-05-07T01:22:39;4.70;;;4.40;;
76788;SDS011;65740;52.464;13.446;2023-05-07T01:25:05;4.17;;;3.87;;
76788;SDS011;65740;52.464;13.446;2023-05-07T01:27:32;3.77;;;3.57;;
76788;SDS011;65740;52.464;13.446;2023-05-07T01:30:02;3.83;;;3.53;;
76788;SDS011;65740;52.464;13.446;2023-05-07T01:32:31;3.70;;;3.50;;
76788;SDS011;65740;52.464;13.446;2023-05-07T01:35:00;4.20;;;3.70;;
76788;SDS011;65740;52.464;13.446;2023-05-07T01:37:27;3.80;;;3.60;;
76788;SDS011;65740;52.464;13.446;2023-05-07T01:39:53;3.87;;;3.57;;
76788;SDS011;65740;52.464;13.446;2023-05-07T01:42:20;4.03;;;3.73;;
76788;SDS011;65740;52.464;13.446;2023-05-07T01:44:46;3.30;;;3.10;;
76788;SDS011;65740;52.464;13.446;2023-05-07T01:47:13;4.00;;;3.70;;
76788;SDS011;65740;52.464;13.446;2023-05-07T01:49:39;3.70;;;3.50;;
76788;SDS011;65740;52.464;13.446;2023-05-07T01:52:05;3.97;;;3.67;;
76788;SDS011;65740;52.464;13.446;2023-05-07T01:54:31;4.23;;;3.93;;
76788;SDS011;65740;52.464;13.446;2023-05-07T01:56:56;3.67;;;3.47;;
76788;SDS011;65740;52.464;13.446;2023-05-07T01:59:22;3.80;;;3.60;;
76788;SDS011;65740;52.464;13.446;2023-05-07T02:01:48;4.07;;;3.77;;
76788;SDS011;65740;52.464;13.446;2023-05-07T02:04:13;3.70;;;3.50;;
76788;SDS011;65740;52.464;13.446;2023-05-07T02:06:39;3.90;;;3.60;;
76788;SDS011;65740;52.464;13.446;2023-05-07T02:09:05;3.90;;;3.70;;
76788;SDS011;65740;52.464;13.446;2023-05-07T02:11:30;3.60;;;3.40;;
76788;SDS011;65740;52.464;13.446;2023-05-07T02:13:56;3.73;;;3.43;;
76788;SDS011;65740;52.464;13.446;2023-05-07T02:16:22;3.77;;;3.57;;
76788;SDS011;65740;52.464;13.446;2023-05-07T02:18:48;3.83;;;3.53;;
76788;SDS011;65740;52.464;13.446;2023-05-07T02:21:14;3.50;;;3.30;;
76788;SDS011;65740;52.464;13.446;2023-05-07T02:23:40;3.87;;;3.60;;
76788;SDS011;65740;52.464;13.446;2023-05-07T02:26:05;3.70;;;3.47;;
76788;SDS011;65740;52.464;13.446;2023-05-07T02:28:31;4.03;;;3.80;;
76788;SDS011;65740;52.464;13.446;2023-05-07T02:30:57;3.57;;;3.37;;
76788;SDS011;65740;52.464;13.446;2023-05-07T02:33:24;3.90;;;3.70;;
76788;SDS011;65740;52.464;13.446;2023-05-07T02:35:50;3.93;;;3.73;;
76788;SDS011;65740;52.464;13.446;2023-05-07T02:38:16;4.20;;;3.97;;
76788;SDS011;65740;52.464;13.446;2023-05-07T02:40:42;4.00;;;3.80;;
76788;SDS011;65740;52.464;13.446;2023-05-07T02:43:08;3.87;;;3.67;;
76788;SDS011;65740;52.464;13.446;2023-05-07T02:45:34;3.87;;;3.67;;
76788;SDS011;65740;52.464;13.446;2023-05-07T02:47:59;3.93;;;3.73;;
76788;SDS011;65740;52.464;13.446;2023-05-07T02:50:25;4.00;;;3.70;;
76788;SDS011;65740;52.464;13.446;2023-05-07T02:52:52;3.97;;;3.77;;
76788;SDS011;65740;52.464;13.446;2023-05-07T02:55:17;3.83;;;3.63;;
76788;SDS011;65740;52.464;13.446;2023-05-07T02:57:43;4.03;;;3.83;;
76788;SDS011;65740;52.464;13.446;2023-05-07T03:00:16;4.00;;;3.80;;
76788;SDS011;65740;52.464;13.446;2023-05-07T03:02:43;3.80;;;3.60;;
76788;SDS011;65740;52.464;13.446;2023-05-07T03:05:09;4.13;;;3.83;;
76788;SDS011;65740;52.464;13.446;2023-05-07T03:07:35;3.90;;;3.70;;
76788;SDS011;65740;52.464;13.446;2023-05-07T03:10:02;3.80;;;3.57;;
76788;SDS011;65740;52.464;13.446;2023-05-07T03:12:28;3.73;;;3.53;;
76788;SDS011;65740;52.464;13.446;2023-05-07T03:14:53;3.90;;;3.70;;
76788;SDS011;65740;52.464;13.446;2023-05-07T03:17:20;3.90;;;3.70;;
76788;SDS011;65740;52.464;13.446;2023-05-07T03:19:46;3.83;;;3.63;;
76788;SDS011;65740;52.464;13.446;2023-05-07T03:22:12;3.97;;;3.77;;
76788;SDS011;65740;52.464;13.446;2023-05-07T03:24:37;3.90;;;3.70;;
76788;SDS011;65740;52.464;13.446;2023-05-07T03:27:03;3.93;;;3.63;;
76788;SDS011;65740;52.464;13.446;2023-05-07T03:29:28;3.87;;;3.67;;
76788;SDS011;65740;52.464;13.446;2023-05-07T03:31:54;4.40;;;4.10;;
76788;SDS011;65740;52.464;13.446;2023-05-07T03:34:20;4.00;;;3.70;;
76788;SDS011;65740;52.464;13.446;2023-05-07T03:36:49;4.20;;;4.00;;
76788;SDS011;65740;52.464;13.446;2023-05-07T03:39:15;3.80;;;3.60;;
76788;SDS011;65740;52.464;13.446;2023-05-07T03:41:41;4.50;;;4.20;;
76788;SDS011;65740;52.464;13.446;2023-05-07T03:44:06;4.27;;;3.97;;
76788;SDS011;65740;52.464;13.446;2023-05-07T03:46:32;3.97;;;3.67;;
76788;SDS011;65740;52.464;13.446;2023-05-07T03:48:58;3.57;;;3.37;;
76788;SDS011;65740;52.464;13.446;2023-05-07T03:51:24;3.67;;;3.43;;
76788;SDS011;65740;52.464;13.446;2023-05-07T03:53:50;4.53;;;4.33;;
76788;SDS011;65740;52.464;13.446;2023-05-07T03:56:19;4.40;;;4.00;;
76788;SDS011;65740;52.464;13.446;2023-05-07T03:58:45;3.80;;;3.60;;
76788;SDS011;65740;52.464;13.446;2023-05-07T04:01:12;4.37;;;4.07;;
76788;SDS011;65740;52.464;13.446;2023-05-07T04:03:37;4.53;;;4.23;;
76788;SDS011;65740;52.464;13.446;2023-05-07T04:06:03;4.20;;;3.90;;
76788;SDS011;65740;52.464;13.446;2023-05-07T04:08:29;4.70;;;4.30;;
76788;SDS011;65740;52.464;13.446;2023-05-07T04:10:58;4.60;;;4.30;;
76788;SDS011;65740;52.464;13.446;2023-05-07T04:13:24;4.37;;;4.10;;
76788;SDS011;65740;52.464;13.446;2023-05-07T04:15:54;4.10;;;3.90;;
76788;SDS011;65740;52.464;13.446;2023-05-07T04:18:20;3.70;;;3.50;;
76788;SDS011;65740;52.464;13.446;2023-05-07T04:20:46;4.03;;;3.80;;
76788;SDS011;65740;52.464;13.446;2023-05-07T04:23:12;4.43;;;4.13;;
76788;SDS011;65740;52.464;13.446;2023-05-07T04:25:38;4.10;;;3.90;;
76788;SDS011;65740;52.464;13.446;2023-05-07T04:28:04;4.00;;;3.80;;
76788;SDS011;65740;52.464;13.446;2023-05-07T04:30:29;4.03;;;3.73;;
76788;SDS011;65740;52.464;13.446;2023-05-07T04:32:55;3.60;;;3.40;;
76788;SDS011;65740;52.464;13.446;2023-05-07T04:35:21;4.00;;;3.80;;
76788;SDS011;65740;52.464;13.446;2023-05-07T04:37:47;3.90;;;3.70;;
76788;SDS011;65740;52.464;13.446;2023-05-07T04:40:13;4.23;;;3.93;;
76788;SDS011;65740;52.464;13.446;2023-05-07T04:42:38;3.80;;;3.60;;
76788;SDS011;65740;52.464;13.446;2023-05-07T04:45:04;4.40;;;4.10;;
76788;SDS011;65740;52.464;13.446;2023-05-07T04:47:30;4.13;;;3.93;;
76788;SDS011;65740;52.464;13.446;2023-05-07T04:49:57;4.00;;;3.80;;
76788;SDS011;65740;52.464;13.446;2023-05-07T04:52:23;4.00;;;3.80;;
76788;SDS011;65740;52.464;13.446;2023-05-07T04:54:48;4.27;;;4.07;;
76788;SDS011;65740;52.464;13.446;2023-05-07T04:57:14;4.23;;;4.00;;
76788;SDS011;65740;52.464;13.446;2023-05-07T04:59:40;4.23;;;4.00;;
76788;SDS011;65740;52.464;13.446;2023-05-07T05:02:05;4.40;;;4.10;;
76788;SDS011;65740;52.464;13.446;2023-05-07T05:04:31;4.20;;;4.00;;
76788;SDS011;65740;52.464;13.446;2023-05-07T05:06:57;4.10;;;3.90;;
76788;SDS011;65740;52.464;13.446;2023-05-07T05:09:23;4.10;;;3.90;;
76788;SDS011;65740;52.464;13.446;2023-05-07T05:11:48;4.10;;;3.90;;
76788;SDS011;65740;52.464;13.446;2023-05-07T05:14:14;4.07;;;3.80;;
76788;SDS011;65740;52.464;13.446;2023-05-07T05:16:40;4.27;;;3.97;;
76788;SDS011;65740;52.464;13.446;2023-05-07T05:19:05;4.23;;;4.00;;
76788;SDS011;65740;52.464;13.446;2023-05-07T05:21:31;4.20;;;4.00;;
76788;SDS011;65740;52.464;13.446;2023-05-07T05:23:57;4.33;;;4.03;;
76788;SDS011;65740;52.464;13.446;2023-05-07T05:26:23;4.07;;;3.87;;
76788;SDS011;65740;52.464;13.446;2023-05-07T05:28:48;3.97;;;3.77;;
76788;SDS011;65740;52.464;13.446;2023-05-07T05:31:15;4.63;;;4.33;;
76788;SDS011;65740;52.464;13.446;2023-05-07T05:33:41;4.20;;;3.90;;
76788;SDS011;65740;52.464;13.446;2023-05-07T05:36:08;4.50;;;4.30;;
76788;SDS011;65740;52.464;13.446;2023-05-07T05:38:35;4.23;;;3.97;;
76788;SDS011;65740;52.464;13.446;2023-05-07T05:41:01;4.17;;;3.97;;
76788;SDS011;65740;52.464;13.446;2023-05-07T05:43:26;4.00;;;3.73;;
76788;SDS011;65740;52.464;13.446;2023-05-07T05:45:52;4.10;;;3.90;;
76788;SDS011;65740;52.464;13.446;2023-05-07T05:48:18;4.10;;;3.90;;
76788;SDS011;65740;52.464;13.446;2023-05-07T05:50:43;4.27;;;4.07;;
76788;SDS011;65740;52.464;13.446;2023-05-07T05:53:09;4.27;;;3.97;;
76788;SDS011;65740;52.464;13.446;2023-05-07T05:55:34;3.97;;;3.77;;
76788;SDS011;65740;52.464;13.446;2023-05-07T05:58:00;4.00;;;3.80;;
76788;SDS011;65740;52.464;13.446;2023-05-07T06:00:26;4.33;;;4.03;;
76788;SDS011;65740;52.464;13.446;2023-05-07T06:02:52;4.60;;;4.30;;
76788;SDS011;65740;52.464;13.446;2023-05-07T06:05:18;3.80;;;3.60;;
76788;SDS011;65740;52.464;13.446;2023-05-07T06:07:43;4.30;;;4.00;;
76788;SDS011;65740;52.464;13.446;2023-05-07T06:10:09;4.63;;;4.33;;
76788;SDS011;65740;52.464;13.446;2023-05-07T06:12:35;4.20;;;4.00;;
76788;SDS011;65740;52.464;13.446;2023-05-07T06:15:00;4.30;;;4.10;;
76788;SDS011;65740;52.464;13.446;2023-05-07T06:17:26;4.67;;;4.37;;
76788;SDS011;65740;52.464;13.446;2023-05-07T06:19:52;3.97;;;3.73;;
76788;SDS011;65740;52.464;13.446;2023-05-07T06:22:17;4.83;;;4.50;;
76788;SDS011;65740;52.464;13.446;2023-05-07T06:24:43;4.80;;;4.50;;
76788;SDS011;65740;52.464;13.446;2023-05-07T06:27:09;4.20;;;3.90;;
76788;SDS011;65740;52.464;13.446;2023-05-07T06:29:34;4.43;;;4.13;;
76788;SDS011;65740;52.464;13.446;2023-05-07T06:32:07;3.97;;;3.77;;
76788;SDS011;65740;52.464;13.446;2023-05-07T06:34:33;4.10;;;3.90;;
76788;SDS011;65740;52.464;13.446;2023-05-07T06:36:58;4.30;;;4.00;;
76788;SDS011;65740;52.464;13.446;2023-05-07T06:39:24;4.10;;;3.90;;
76788;SDS011;65740;52.464;13.446;2023-05-07T06:41:49;3.67;;;3.47;;
76788;SDS011;65740;52.464;13.446;2023-05-07T06:44:15;4.50;;;4.30;;
76788;SDS011;65740;52.464;13.446;2023-05-07T06:46:40;3.97;;;3.70;;
76788;SDS011;65740;52.464;13.446;2023-05-07T06:49:06;4.37;;;4.07;;
76788;SDS011;65740;52.464;13.446;2023-05-07T06:51:32;4.33;;;4.03;;
76788;SDS011;65740;52.464;13.446;2023-05-07T06:53:57;4.53;;;4.30;;
76788;SDS011;65740;52.464;13.446;2023-05-07T06:56:23;4.10;;;3.80;;
76788;SDS011;65740;52.464;13.446;2023-05-07T06:58:49;4.27;;;3.97;;
76788;SDS011;65740;52.464;13.446;2023-05-07T07:01:15;4.53;;;4.27;;
76788;SDS011;65740;52.464;13.446;2023-05-07T07:03:41;4.47;;;4.17;;
76788;SDS011;65740;52.464;13.446;2023-05-07T07:06:06;4.33;;;4.03;;
76788;SDS011;65740;52.464;13.446;2023-05-07T07:08:32;4.40;;;4.10;;
76788;SDS011;65740;52.464;13.446;2023-05-07T07:10:58;4.07;;;3.87;;
76788;SDS011;65740;52.464;13.446;2023-05-07T07:13:23;4.63;;;4.33;;
76788;SDS011;65740;52.464;13.446;2023-05-07T07:15:49;4.03;;;3.83;;
76788;SDS011;65740;52.464;13.446;2023-05-07T07:18:16;3.97;;;3.77;;
76788;SDS011;65740;52.464;13.446;2023-05-07T07:20:42;4.37;;;4.17;;
76788;SDS011;65740;52.464;13.446;2023-05-07T07:23:09;4.50;;;4.20;;
76788;SDS011;65740;52.464;13.446;2023-05-07T07:25:35;4.00;;;3.70;;
76788;SDS011;65740;52.464;13.446;2023-05-07T07:28:00;4.30;;;4.00;;
76788;SDS011;65740;52.464;13.446;2023-05-07T07:30:26;4.70;;;4.40;;
76788;SDS011;65740;52.464;13.446;2023-05-07T07:32:51;4.77;;;4.47;;
76788;SDS011;65740;52.464;13.446;2023-05-07T07:35:17;4.30;;;4.10;;
76788;SDS011;65740;52.464;13.446;2023-05-07T07:37:43;4.20;;;3.97;;
76788;SDS011;65740;52.464;13.446;2023-05-07T07:40:09;4.43;;;4.13;;
76788;SDS011;65740;52.464;13.446;2023-05-07T07:42:36;4.30;;;4.10;;
76788;SDS011;65740;52.464;13.446;2023-05-07T07:45:02;3.80;;;3.60;;
76788;SDS011;65740;52.464;13.446;2023-05-07T07:47:28;3.93;;;3.73;;
76788;SDS011;65740;52.464;13.446;2023-05-07T07:49:53;4.00;;;3.80;;
76788;SDS011;65740;52.464;13.446;2023-05-07T07:52:19;4.10;;;3.90;;
76788;SDS011;65740;52.464;13.446;2023-05-07T07:54:45;4.67;;;4.37;;
76788;SDS011;65740;52.464;13.446;2023-05-07T07:57:10;3.97;;;3.77;;
76788;SDS011;65740;52.464;13.446;2023-05-07T07:59:36;4.20;;;3.90;;
76788;SDS011;65740;52.464;13.446;2023-05-07T08:02:01;4.10;;;3.90;;
76788;SDS011;65740;52.464;13.446;2023-05-07T08:04:27;3.87;;;3.67;;
76788;SDS011;65740;52.464;13.446;2023-05-07T08:06:53;4.23;;;4.03;;
76788;SDS011;65740;52.464;13.446;2023-05-07T08:09:19;4.43;;;4.17;;
76788;SDS011;65740;52.464;13.446;2023-05-07T08:11:45;4.57;;;4.10;;
76788;SDS011;65740;52.464;13.446;2023-05-07T08:14:11;3.90;;;3.70;;
76788;SDS011;65740;52.464;13.446;2023-05-07T08:16:37;4.00;;;3.80;;
76788;SDS011;65740;52.464;13.446;2023-05-07T08:19:02;4.00;;;3.80;;
76788;SDS011;65740;52.464;13.446;2023-05-07T08:21:28;4.00;;;3.80;;
76788;SDS011;65740;52.464;13.446;2023-05-07T08:23:53;3.77;;;3.57;;
76788;SDS011;65740;52.464;13.446;2023-05-07T08:26:19;4.10;;;3.90;;
76788;SDS011;65740;52.464;13.446;2023-05-07T08:28:45;4.80;;;4.47;;
76788;SDS011;65740;52.464;13.446;2023-05-07T08:31:11;4.50;;;4.10;;
76788;SDS011;65740;52.464;13.446;2023-05-07T08:33:36;4.47;;;4.17;;
76788;SDS011;65740;52.464;13.446;2023-05-07T08:36:03;4.30;;;4.00;;
76788;SDS011;65740;52.464;13.446;2023-05-07T08:38:29;4.40;;;4.10;;
76788;SDS011;65740;52.464;13.446;2023-05-07T08:40:55;4.70;;;4.40;;
76788;SDS011;65740;52.464;13.446;2023-05-07T08:43:21;3.90;;;3.70;;
76788;SDS011;65740;52.464;13.446;2023-05-07T08:45:48;4.50;;;4.20;;
76788;SDS011;65740;52.464;13.446;2023-05-07T08:48:17;4.53;;;4.23;;
76788;SDS011;65740;52.464;13.446;2023-05-07T08:50:42;4.30;;;4.00;;
76788;SDS011;65740;52.464;13.446;2023-05-07T08:53:08;3.80;;;3.60;;
76788;SDS011;65740;52.464;13.446;2023-05-07T08:55:34;4.10;;;3.90;;
76788;SDS011;65740;52.464;13.446;2023-05-07T08:58:00;4.00;;;3.80;;
76788;SDS011;65740;52.464;13.446;2023-05-07T09:00:26;3.90;;;3.60;;
76788;SDS011;65740;52.464;13.446;2023-05-07T09:02:52;4.17;;;3.97;;
76788;SDS011;65740;52.464;13.446;2023-05-07T09:05:18;4.30;;;4.10;;
76788;SDS011;65740;52.464;13.446;2023-05-07T09:07:45;4.50;;;4.20;;
76788;SDS011;65740;52.464;13.446;2023-05-07T09:10:11;3.77;;;3.57;;
76788;SDS011;65740;52.464;13.446;2023-05-07T09:12:37;3.97;;;3.77;;
76788;SDS011;65740;52.464;13.446;2023-05-07T09:15:04;3.80;;;3.60;;
76788;SDS011;65740;52.464;13.446;2023-05-07T09:17:30;4.03;;;3.83;;
76788;SDS011;65740;52.464;13.446;2023-05-07T09:19:56;3.73;;;3.53;;
76788;SDS011;65740;52.464;13.446;2023-05-07T09:22:26;4.20;;;4.00;;
76788;SDS011;65740;52.464;13.446;2023-05-07T09:24:52;4.00;;;3.70;;
76788;SDS011;65740;52.464;13.446;2023-05-07T09:27:17;4.23;;;4.00;;
76788;SDS011;65740;52.464;13.446;2023-05-07T09:29:43;4.40;;;4.10;;
76788;SDS011;65740;52.464;13.446;2023-05-07T09:32:10;3.80;;;3.60;;
76788;SDS011;65740;52.464;13.446;2023-05-07T09:34:36;4.17;;;3.87;;
76788;SDS011;65740;52.464;13.446;2023-05-07T09:37:01;4.27;;;4.00;;
76788;SDS011;65740;52.464;13.446;2023-05-07T09:39:44;4.20;;;3.90;;
76788;SDS011;65740;52.464;13.446;2023-05-07T09:42:11;3.53;;;3.33;;
76788;SDS011;65740;52.464;13.446;2023-05-07T09:44:39;4.17;;;3.87;;
76788;SDS011;65740;52.464;13.446;2023-05-07T09:47:06;4.73;;;4.37;;
76788;SDS011;65740;52.464;13.446;2023-05-07T09:49:36;3.80;;;3.57;;
76788;SDS011;65740;52.464;13.446;2023-05-07T09:52:03;3.80;;;3.60;;
76788;SDS011;65740;52.464;13.446;2023-05-07T09:54:31;3.57;;;3.37;;
76788;SDS011;65740;52.464;13.446;2023-05-07T09:56:59;4.30;;;4.10;;
76788;SDS011;65740;52.464;13.446;2023-05-07T09:59:27;4.07;;;3.77;;
76788;SDS011;65740;52.464;13.446;2023-05-07T10:01:56;4.20;;;3.90;;
76788;SDS011;65740;52.464;13.446;2023-05-07T10:04:24;4.10;;;3.80;;
76788;SDS011;65740;52.464;13.446;2023-05-07T10:06:52;3.80;;;3.60;;
76788;SDS011;65740;52.464;13.446;2023-05-07T10:09:19;3.70;;;3.50;;
76788;SDS011;65740;52.464;13.446;2023-05-07T10:11:46;4.33;;;4.13;;
76788;SDS011;65740;52.464;13.446;2023-05-07T10:14:14;3.80;;;3.60;;
76788;SDS011;65740;52.464;13.446;2023-05-07T10:16:39;4.13;;;3.83;;
76788;SDS011;65740;52.464;13.446;2023-05-07T10:19:07;4.10;;;3.80;;
76788;SDS011;65740;52.464;13.446;2023-05-07T10:21:37;3.43;;;3.23;;
76788;SDS011;65740;52.464;13.446;2023-05-07T10:26:42;4.00;;;3.70;;
76788;SDS011;65740;52.464;13.446;2023-05-07T10:29:29;3.83;;;3.63;;
76788;SDS011;65740;52.464;13.446;2023-05-07T10:34:54;3.80;;;3.60;;
76788;SDS011;65740;52.464;13.446;2023-05-07T10:37:23;4.00;;;3.73;;
76788;SDS011;65740;52.464;13.446;2023-05-07T10:39:49;3.80;;;3.60;;
76788;SDS011;65740;52.464;13.446;2023-05-07T10:42:16;3.93;;;3.63;;
76788;SDS011;65740;52.464;13.446;2023-05-07T10:44:42;4.00;;;3.80;;
76788;SDS011;65740;52.464;13.446;2023-05-07T10:47:08;4.23;;;4.03;;
76788;SDS011;65740;52.464;13.446;2023-05-07T10:52:17;3.57;;;3.37;;
76788;SDS011;65740;52.464;13.446;2023-05-07T10:54:48;4.00;;;3.80;;
76788;SDS011;65740;52.464;13.446;2023-05-07T10:57:43;3.83;;;3.63;;
76788;SDS011;65740;52.464;13.446;2023-05-07T11:05:24;3.50;;;3.27;;
76788;SDS011;65740;52.464;13.446;2023-05-07T11:07:54;3.90;;;3.70;;
76788;SDS011;65740;52.464;13.446;2023-05-07T11:10:23;3.70;;;3.50;;
76788;SDS011;65740;52.464;13.446;2023-05-07T11:13:15;3.93;;;3.73;;
76788;SDS011;65740;52.464;13.446;2023-05-07T11:15:42;3.83;;;3.63;;
76788;SDS011;65740;52.464;13.446;2023-05-07T11:18:10;3.40;;;3.20;;
76788;SDS011;65740;52.464;13.446;2023-05-07T11:26:05;4.17;;;3.97;;
76788;SDS011;65740;52.464;13.446;2023-05-07T11:28:41;4.07;;;3.77;;
76788;SDS011;65740;52.464;13.446;2023-05-07T11:31:08;4.30;;;4.00;;
76788;SDS011;65740;52.464;13.446;2023-05-07T11:33:35;3.60;;;3.40;;
76788;SDS011;65740;52.464;13.446;2023-05-07T11:36:03;4.17;;;3.90;;
76788;SDS011;65740;52.464;13.446;2023-05-07T11:38:29;3.70;;;3.50;;
76788;SDS011;65740;52.464;13.446;2023-05-07T11:40:57;3.60;;;3.40;;
76788;SDS011;65740;52.464;13.446;2023-05-07T11:43:25;3.57;;;3.37;;
76788;SDS011;65740;52.464;13.446;2023-05-07T11:45:51;3.43;;;3.23;;
76788;SDS011;65740;52.464;13.446;2023-05-07T11:48:17;3.80;;;3.60;;
76788;SDS011;65740;52.464;13.446;2023-05-07T11:51:00;3.77;;;3.57;;
76788;SDS011;65740;52.464;13.446;2023-05-07T11:53:36;3.77;;;3.47;;
76788;SDS011;65740;52.464;13.446;2023-05-07T11:56:09;4.17;;;3.33;;
76788;SDS011;65740;52.464;13.446;2023-05-07T11:58:37;4.07;;;3.77;;
76788;SDS011;65740;52.464;13.446;2023-05-07T12:01:03;4.43;;;4.13;;
76788;SDS011;65740;52.464;13.446;2023-05-07T12:03:29;4.30;;;3.90;;
76788;SDS011;65740;52.464;13.446;2023-05-07T12:05:54;4.60;;;3.73;;
76788;SDS011;65740;52.464;13.446;2023-05-07T12:08:20;4.00;;;3.70;;
76788;SDS011;65740;52.464;13.446;2023-05-07T12:10:49;4.10;;;3.60;;
76788;SDS011;65740;52.464;13.446;2023-05-07T12:15:50;6.33;;;4.83;;
76788;SDS011;65740;52.464;13.446;2023-05-07T12:18:16;8.37;;;5.90;;
76788;SDS011;65740;52.464;13.446;2023-05-07T12:23:18;9.17;;;6.83;;
76788;SDS011;65740;52.464;13.446;2023-05-07T12:25:44;7.37;;;6.47;;
76788;SDS011;65740;52.464;13.446;2023-05-07T12:28:13;8.77;;;6.07;;
76788;SDS011;65740;52.464;13.446;2023-05-07T12:30:43;13.13;;;5.80;;
76788;SDS011;65740;52.464;13.446;2023-05-07T12:33:10;19.93;;;6.60;;
76788;SDS011;65740;52.464;13.446;2023-05-07T12:35:40;9.27;;;6.17;;
76788;SDS011;65740;52.464;13.446;2023-05-07T12:38:10;9.80;;;5.03;;
76788;SDS011;65740;52.464;13.446;2023-05-07T12:40:47;10.67;;;4.77;;
76788;SDS011;65740;52.464;13.446;2023-05-07T12:43:25;9.77;;;5.07;;
76788;SDS011;65740;52.464;13.446;2023-05-07T12:45:56;6.17;;;4.60;;
76788;SDS011;65740;52.464;13.446;2023-05-07T12:48:23;5.33;;;4.80;;
76788;SDS011;65740;52.464;13.446;2023-05-07T12:50:52;6.53;;;5.80;;
76788;SDS011;65740;52.464;13.446;2023-05-07T12:53:20;4.97;;;4.47;;
76788;SDS011;65740;52.464;13.446;2023-05-07T12:55:48;4.90;;;4.40;;
76788;SDS011;65740;52.464;13.446;2023-05-07T12:58:16;4.50;;;3.83;;
76788;SDS011;65740;52.464;13.446;2023-05-07T13:00:43;4.33;;;4.00;;
76788;SDS011;65740;52.464;13.446;2023-05-07T13:03:09;4.10;;;3.80;;
76788;SDS011;65740;52.464;13.446;2023-05-07T13:05:35;4.57;;;4.00;;
76788;SDS011;65740;52.464;13.446;2023-05-07T13:08:01;5.50;;;4.00;;
76788;SDS011;65740;52.464;13.446;2023-05-07T13:10:27;5.43;;;4.27;;
76788;SDS011;65740;52.464;13.446;2023-05-07T13:12:53;5.10;;;4.23;;
76788;SDS011;65740;52.464;13.446;2023-05-07T13:15:19;5.40;;;4.20;;
76788;SDS011;65740;52.464;13.446;2023-05-07T13:17:46;5.03;;;3.73;;
76788;SDS011;65740;52.464;13.446;2023-05-07T13:20:12;5.33;;;4.47;;
76788;SDS011;65740;52.464;13.446;2023-05-07T13:22:38;4.50;;;4.10;;
76788;SDS011;65740;52.464;13.446;2023-05-07T13:25:04;7.43;;;4.60;;
76788;SDS011;65740;52.464;13.446;2023-05-07T13:27:30;4.87;;;4.37;;
76788;SDS011;65740;52.464;13.446;2023-05-07T13:29:56;4.97;;;4.47;;
76788;SDS011;65740;52.464;13.446;2023-05-07T13:32:22;4.77;;;4.40;;
76788;SDS011;65740;52.464;13.446;2023-05-07T13:34:48;4.37;;;3.97;;
76788;SDS011;65740;52.464;13.446;2023-05-07T13:37:13;4.80;;;3.90;;
76788;SDS011;65740;52.464;13.446;2023-05-07T13:39:39;4.73;;;4.33;;
76788;SDS011;65740;52.464;13.446;2023-05-07T13:42:05;5.30;;;4.90;;
76788;SDS011;65740;52.464;13.446;2023-05-07T13:44:31;3.60;;;3.30;;
76788;SDS011;65740;52.464;13.446;2023-05-07T13:46:57;4.50;;;4.20;;
76788;SDS011;65740;52.464;13.446;2023-05-07T13:49:22;4.40;;;4.10;;
76788;SDS011;65740;52.464;13.446;2023-05-07T13:51:49;5.33;;;4.03;;
76788;SDS011;65740;52.464;13.446;2023-05-07T13:54:14;4.60;;;4.30;;
76788;SDS011;65740;52.464;13.446;2023-05-07T13:56:40;4.30;;;3.90;;
76788;SDS011;65740;52.464;13.446;2023-05-07T13:59:06;3.60;;;3.40;;
76788;SDS011;65740;52.464;13.446;2023-05-07T14:01:32;3.80;;;3.40;;
76788;SDS011;65740;52.464;13.446;2023-05-07T14:03:57;3.93;;;3.57;;
76788;SDS011;65740;52.464;13.446;2023-05-07T14:06:24;4.00;;;3.53;;
76788;SDS011;65740;52.464;13.446;2023-05-07T14:08:50;3.80;;;3.50;;
76788;SDS011;65740;52.464;13.446;2023-05-07T14:11:15;8.80;;;3.33;;
76788;SDS011;65740;52.464;13.446;2023-05-07T14:13:41;3.77;;;3.47;;
76788;SDS011;65740;52.464;13.446;2023-05-07T14:16:07;3.47;;;3.20;;
76788;SDS011;65740;52.464;13.446;2023-05-07T14:18:32;3.73;;;3.40;;
76788;SDS011;65740;52.464;13.446;2023-05-07T14:20:59;4.10;;;3.20;;
76788;SDS011;65740;52.464;13.446;2023-05-07T14:23:25;3.57;;;3.37;;
76788;SDS011;65740;52.464;13.446;2023-05-07T14:25:52;3.57;;;3.30;;
76788;SDS011;65740;52.464;13.446;2023-05-07T14:28:18;6.93;;;3.40;;
76788;SDS011;65740;52.464;13.446;2023-05-07T14:30:44;3.77;;;3.37;;
76788;SDS011;65740;52.464;13.446;2023-05-07T14:33:09;3.53;;;3.33;;
76788;SDS011;65740;52.464;13.446;2023-05-07T14:35:35;6.13;;;3.60;;
76788;SDS011;65740;52.464;13.446;2023-05-07T14:38:02;4.00;;;3.70;;
76788;SDS011;65740;52.464;13.446;2023-05-07T14:40:27;4.47;;;4.17;;
76788;SDS011;65740;52.464;13.446;2023-05-07T14:42:53;4.57;;;3.70;;
76788;SDS011;65740;52.464;13.446;2023-05-07T14:45:20;3.80;;;3.50;;
76788;SDS011;65740;52.464;13.446;2023-05-07T14:47:46;3.83;;;3.60;;
76788;SDS011;65740;52.464;13.446;2023-05-07T14:50:12;5.13;;;3.80;;
76788;SDS011;65740;52.464;13.446;2023-05-07T14:52:37;3.90;;;3.70;;
76788;SDS011;65740;52.464;13.446;2023-05-07T14:55:03;4.00;;;3.60;;